Time;durP1;ratioP1;P1;durP2;ratioP2;P2;SDS_P1;SDS_P2;PMS_P1;PMS_P2;Temp;Humidity;BMP_temperature;BMP_pressure;BME280_temperature;BME280_humidity;BME280_pressure;Samples;Min_cycle;Max_cycle;Signal;HPM_P1;HPM_P2
2021/06/17 00:01:19;;;;;;;7.33;4.50;;;23.10;61.50;;;;;;5069255;28;20189;-73
2021/06/17 00:03:45;;;;;;;7.07;5.27;;;23.10;61.70;;;;;;5071444;28;20263;-76
2021/06/17 00:06:11;;;;;;;8.37;4.87;;;23.10;61.70;;;;;;5071615;28;20181;-74
2021/06/17 00:08:37;;;;;;;6.90;5.73;;;23.10;61.90;;;;;;5071476;28;20178;-76
2021/06/17 00:11:03;;;;;;;7.83;5.47;;;23.10;61.90;;;;;;5070399;28;20181;-73
2021/06/17 00:13:33;;;;;;;8.23;5.50;;;23.00;62.20;;;;;;5071743;28;20190;-74
2021/06/17 00:16:00;;;;;;;8.80;5.10;;;23.00;62.30;;;;;;5071159;28;20430;-74
2021/06/17 00:18:27;;;;;;;6.83;4.73;;;22.90;62.30;;;;;;5069946;28;20884;-74
2021/06/17 00:20:53;;;;;;;10.63;5.40;;;22.90;62.60;;;;;;5065098;28;20423;-75
2021/06/17 00:23:19;;;;;;;11.63;6.17;;;22.80;62.60;;;;;;5073631;28;20417;-76
2021/06/17 00:25:45;;;;;;;7.10;4.90;;;22.80;63.10;;;;;;5074162;28;20440;-75
2021/06/17 00:28:11;;;;;;;6.83;5.43;;;22.80;63.40;;;;;;5073572;28;20429;-75
2021/06/17 00:30:38;;;;;;;8.87;5.53;;;22.80;63.10;;;;;;5072939;28;20196;-75
2021/06/17 00:33:05;;;;;;;9.20;5.20;;;22.80;63.10;;;;;;5073862;28;20435;-75
2021/06/17 00:35:31;;;;;;;6.13;4.87;;;22.80;62.80;;;;;;5073804;28;20503;-74
2021/06/17 00:38:00;;;;;;;6.97;4.60;;;22.70;62.90;;;;;;5076997;28;20587;-75
2021/06/17 00:40:26;;;;;;;13.20;5.20;;;22.70;63.10;;;;;;5077352;28;20407;-75
2021/06/17 00:42:52;;;;;;;8.10;5.60;;;22.70;63.10;;;;;;5077528;28;20418;-75
2021/06/17 00:45:28;;;;;;;8.30;5.50;;;22.70;63.20;;;;;;5078966;28;20812;-75
2021/06/17 00:47:54;;;;;;;6.20;4.40;;;22.70;63.50;;;;;;5080057;28;20449;-77
2021/06/17 00:50:21;;;;;;;9.53;5.40;;;22.70;63.50;;;;;;5086369;28;20424;-76
2021/06/17 00:52:49;;;;;;;7.97;5.93;;;22.60;63.80;;;;;;5086910;28;20443;-75
2021/06/17 00:55:16;;;;;;;9.13;6.20;;;22.50;64.50;;;;;;5096814;28;20441;-77
2021/06/17 00:57:42;;;;;;;8.30;5.70;;;22.50;64.70;;;;;;5096104;28;20513;-75
2021/06/17 01:00:11;;;;;;;7.20;5.60;;;22.50;64.10;;;;;;5095502;28;20441;-76
2021/06/17 01:02:37;;;;;;;7.17;5.43;;;22.50;65.00;;;;;;5082964;28;20233;-76
2021/06/17 01:05:12;;;;;;;12.10;5.43;;;22.50;64.20;;;;;;5074344;28;20534;-76
2021/06/17 01:07:55;;;;;;;9.97;6.10;;;22.40;64.80;;;;;;5074070;28;20427;-74
2021/06/17 01:10:21;;;;;;;7.00;5.20;;;22.40;64.20;;;;;;5074447;28;20447;-75
2021/06/17 01:13:07;;;;;;;7.73;5.13;;;22.30;64.40;;;;;;5069680;28;20453;-74
2021/06/17 01:15:39;;;;;;;7.00;5.50;;;22.30;64.10;;;;;;5073306;28;20698;-74
2021/06/17 01:18:16;;;;;;;6.50;5.00;;;22.20;64.20;;;;;;5072703;28;20465;-75
2021/06/17 01:21:01;;;;;;;8.87;5.30;;;22.20;64.10;;;;;;5072123;28;20426;-75
2021/06/17 01:24:09;;;;;;;8.00;5.77;;;22.20;64.50;;;;;;5073508;28;20409;-75
2021/06/17 01:27:23;;;;;;;10.60;5.90;;;22.10;65.40;;;;;;5071124;28;20461;-76
2021/06/17 01:29:54;;;;;;;7.83;5.53;;;21.90;66.30;;;;;;5047847;28;21414;-76
2021/06/17 01:32:22;;;;;;;9.97;6.03;;;21.80;66.40;;;;;;5050447;28;20433;-76
2021/06/17 01:34:50;;;;;;;8.43;5.13;;;21.70;67.00;;;;;;5049548;28;20474;-76
2021/06/17 01:37:21;;;;;;;14.00;6.33;;;21.70;66.70;;;;;;5044270;28;20422;-75
2021/06/17 01:39:48;;;;;;;9.87;5.90;;;21.70;67.20;;;;;;5050301;28;20477;-77
2021/06/17 01:42:15;;;;;;;8.13;5.40;;;21.60;67.30;;;;;;5050066;28;21010;-75
2021/06/17 01:44:43;;;;;;;8.00;5.47;;;21.60;67.20;;;;;;5050737;28;20520;-75
2021/06/17 01:47:11;;;;;;;9.93;5.53;;;21.60;66.90;;;;;;5049638;28;20814;-75
2021/06/17 01:49:39;;;;;;;6.53;4.83;;;21.60;66.40;;;;;;5041887;28;20434;-75
2021/06/17 01:52:06;;;;;;;8.07;5.70;;;21.50;66.60;;;;;;5049034;28;20503;-75
2021/06/17 01:54:33;;;;;;;10.57;5.50;;;21.60;66.70;;;;;;5049210;28;20457;-75
2021/06/17 01:57:01;;;;;;;7.73;5.30;;;21.50;67.00;;;;;;5049234;28;20438;-75
2021/06/17 01:59:29;;;;;;;9.40;6.03;;;21.50;67.20;;;;;;5048500;28;20565;-75
2021/06/17 02:01:57;;;;;;;7.83;5.40;;;21.40;67.60;;;;;;5048574;28;20422;-75
2021/06/17 02:04:25;;;;;;;7.37;5.70;;;21.30;68.20;;;;;;5048769;28;20440;-75
2021/06/17 02:06:52;;;;;;;11.93;5.90;;;21.30;68.00;;;;;;5069597;28;20416;-75
2021/06/17 02:09:19;;;;;;;7.10;5.17;;;21.30;67.90;;;;;;5071154;28;20426;-74
2021/06/17 02:11:45;;;;;;;8.03;6.03;;;21.30;68.00;;;;;;5071270;28;20447;-74
2021/06/17 02:14:12;;;;;;;7.90;5.90;;;21.30;67.90;;;;;;5069351;28;20951;-77
2021/06/17 02:16:43;;;;;;;7.60;5.10;;;21.40;67.00;;;;;;5072401;28;20420;-76
2021/06/17 02:19:12;;;;;;;9.00;5.10;;;21.40;67.30;;;;;;5072630;28;20463;-75
2021/06/17 02:21:38;;;;;;;8.57;4.70;;;21.40;67.20;;;;;;5071621;28;20503;-75
2021/06/17 02:24:08;;;;;;;10.00;5.80;;;21.40;67.00;;;;;;5072054;28;20909;-76
2021/06/17 02:26:41;;;;;;;7.90;5.07;;;21.40;66.60;;;;;;5070602;28;20428;-75
2021/06/17 02:29:11;;;;;;;7.67;4.70;;;21.40;66.40;;;;;;5070737;28;20467;-76
2021/06/17 02:31:44;;;;;;;7.57;5.17;;;21.40;66.70;;;;;;5072606;28;20782;-75
2021/06/17 02:34:11;;;;;;;7.33;5.00;;;21.40;66.60;;;;;;5069762;28;20455;-76
2021/06/17 02:36:39;;;;;;;6.10;4.90;;;21.40;66.70;;;;;;5071276;28;20447;-75
2021/06/17 02:39:07;;;;;;;11.23;5.57;;;21.40;67.00;;;;;;5068706;28;20470;-76
2021/06/17 02:41:34;;;;;;;6.83;5.37;;;21.30;67.00;;;;;;5065460;28;20442;-76
2021/06/17 02:44:01;;;;;;;7.87;5.60;;;21.20;67.60;;;;;;5063993;28;20510;-75
2021/06/17 02:46:27;;;;;;;11.70;5.90;;;21.20;67.70;;;;;;5061971;28;20419;-76
2021/06/17 02:48:55;;;;;;;8.20;5.83;;;21.10;67.60;;;;;;5069045;28;20438;-75
2021/06/17 02:51:21;;;;;;;8.80;5.80;;;21.10;67.60;;;;;;5063336;28;20427;-75
2021/06/17 02:53:48;;;;;;;8.13;5.10;;;21.00;67.70;;;;;;5071609;28;20918;-74
2021/06/17 02:56:20;;;;;;;10.13;5.50;;;21.00;68.20;;;;;;5069686;28;20435;-74
2021/06/17 02:58:52;;;;;;;7.63;5.20;;;21.00;67.90;;;;;;5072830;28;20988;-75
2021/06/17 03:01:59;;;;;;;6.43;5.00;;;21.00;68.30;;;;;;5070937;28;20518;-73
2021/06/17 03:04:45;;;;;;;9.30;4.90;;;20.90;68.80;;;;;;5073887;28;20438;-74
2021/06/17 03:07:35;;;;;;;8.20;5.30;;;20.90;68.50;;;;;;5069586;28;20445;-73
2021/06/17 03:10:05;;;;;;;8.10;5.87;;;20.90;68.50;;;;;;5076798;28;20419;-75
2021/06/17 03:12:33;;;;;;;10.43;5.50;;;21.00;68.00;;;;;;5077611;28;20410;-74
2021/06/17 03:15:01;;;;;;;11.30;5.70;;;21.00;67.70;;;;;;5074660;28;20538;-73
2021/06/17 03:17:30;;;;;;;8.13;5.50;;;21.00;68.00;;;;;;5071778;28;20422;-76
2021/06/17 03:19:57;;;;;;;7.20;6.00;;;20.90;68.50;;;;;;5071055;28;20914;-74
2021/06/17 03:22:25;;;;;;;9.57;5.87;;;20.80;69.10;;;;;;5065881;28;21072;-75
2021/06/17 03:24:54;;;;;;;14.40;6.17;;;20.80;69.10;;;;;;5069235;28;20475;-74
2021/06/17 03:27:21;;;;;;;9.60;5.97;;;20.80;69.40;;;;;;5067681;28;20949;-75
2021/06/17 03:29:49;;;;;;;7.60;5.60;;;20.70;69.90;;;;;;5060254;28;20438;-74
2021/06/17 03:32:16;;;;;;;9.30;5.63;;;20.70;70.50;;;;;;5070082;28;20511;-75
2021/06/17 03:34:44;;;;;;;10.23;5.80;;;20.60;70.70;;;;;;5070548;28;20471;-75
2021/06/17 03:37:12;;;;;;;7.90;5.17;;;20.60;70.70;;;;;;5070391;28;20509;-74
2021/06/17 03:39:38;;;;;;;9.90;5.27;;;20.70;70.70;;;;;;5069566;28;20616;-75
2021/06/17 03:42:06;;;;;;;7.03;4.47;;;20.70;70.20;;;;;;5070429;28;20473;-75
2021/06/17 03:44:34;;;;;;;9.30;5.07;;;20.80;68.80;;;;;;5070561;28;21044;-75
2021/06/17 03:47:01;;;;;;;5.80;4.80;;;20.80;69.20;;;;;;5066279;28;20434;-76
2021/06/17 03:49:28;;;;;;;6.63;4.73;;;20.70;69.80;;;;;;5070455;28;20420;-75
2021/06/17 03:51:56;;;;;;;9.17;5.57;;;20.80;69.70;;;;;;5067276;28;20423;-74
2021/06/17 03:54:24;;;;;;;7.20;5.20;;;20.80;69.80;;;;;;5074974;28;20499;-75
2021/06/17 03:56:56;;;;;;;5.70;4.40;;;20.80;69.50;;;;;;5072954;28;20572;-76
2021/06/17 03:59:24;;;;;;;14.43;5.20;;;20.80;67.20;;;;;;5068650;28;20464;-75
2021/06/17 04:01:51;;;;;;;7.53;4.33;;;20.80;67.90;;;;;;5071473;28;20427;-75
2021/06/17 04:04:17;;;;;;;6.03;4.50;;;20.80;68.00;;;;;;5071099;28;20998;-75
2021/06/17 04:06:48;;;;;;;7.40;5.27;;;20.80;68.20;;;;;;5064735;28;20430;-75
2021/06/17 04:09:23;;;;;;;6.90;4.50;;;20.80;68.60;;;;;;5069670;28;20435;-75
2021/06/17 04:11:49;;;;;;;8.13;4.80;;;20.90;68.20;;;;;;5072526;28;20431;-73
2021/06/17 04:14:17;;;;;;;6.70;5.33;;;21.00;67.60;;;;;;5070269;28;20973;-75
2021/06/17 04:16:45;;;;;;;7.50;5.27;;;21.00;67.70;;;;;;5072392;28;20459;-74
2021/06/17 04:19:12;;;;;;;10.03;6.40;;;20.90;68.20;;;;;;5073584;28;20462;-75
2021/06/17 04:21:39;;;;;;;10.67;6.07;;;21.00;70.70;;;;;;5073343;28;20421;-75
2021/06/17 04:24:06;;;;;;;12.17;6.70;;;20.80;71.80;;;;;;5074281;28;21054;-73
2021/06/17 04:26:33;;;;;;;13.60;6.40;;;20.60;72.70;;;;;;5074069;28;20425;-75
2021/06/17 04:28:59;;;;;;;11.53;6.30;;;20.50;72.90;;;;;;5072325;28;20756;-75
2021/06/17 04:31:27;;;;;;;9.30;5.83;;;20.50;73.00;;;;;;5072913;28;20411;-74
2021/06/17 04:33:53;;;;;;;12.87;6.67;;;20.60;72.70;;;;;;5073395;28;20939;-74
2021/06/17 04:36:19;;;;;;;8.17;5.47;;;20.60;72.90;;;;;;5073371;28;20444;-75
2021/06/17 04:38:49;;;;;;;7.93;5.73;;;20.70;72.90;;;;;;5072445;28;20468;-75
2021/06/17 04:41:15;;;;;;;8.60;5.50;;;20.80;72.60;;;;;;5073095;28;20410;-75
2021/06/17 04:43:41;;;;;;;7.00;5.30;;;20.90;71.60;;;;;;5072485;28;20420;-74
2021/06/17 04:46:08;;;;;;;6.77;5.40;;;21.00;71.70;;;;;;5073177;28;20420;-75
2021/06/17 04:48:36;;;;;;;8.50;5.30;;;21.10;71.30;;;;;;5073038;28;20488;-74
2021/06/17 04:51:05;;;;;;;8.03;5.20;;;21.10;70.70;;;;;;5073796;28;20436;-75
2021/06/17 04:53:31;;;;;;;9.00;5.50;;;21.20;71.10;;;;;;5074218;28;20421;-76
2021/06/17 04:55:57;;;;;;;10.73;5.73;;;21.30;71.00;;;;;;5073015;28;20562;-75
2021/06/17 04:58:24;;;;;;;7.17;5.03;;;21.40;70.80;;;;;;5067919;28;20471;-73
2021/06/17 05:00:51;;;;;;;6.90;4.93;;;21.50;70.70;;;;;;5074262;28;20441;-73
2021/06/17 05:03:17;;;;;;;8.43;5.43;;;21.50;70.20;;;;;;5077563;28;20424;-72
2021/06/17 05:05:43;;;;;;;8.53;4.90;;;21.60;69.90;;;;;;5092351;28;20469;-73
2021/06/17 05:10:51;;;;;;;9.73;5.50;;;21.80;70.10;;;;;;5080220;28;20536;-72
2021/06/17 05:13:23;;;;;;;8.63;5.50;;;21.90;69.70;;;;;;5072545;28;20438;-73
2021/06/17 05:15:50;;;;;;;7.50;4.93;;;22.00;69.50;;;;;;5066660;28;20456;-73
2021/06/17 05:18:20;;;;;;;9.00;5.00;;;22.00;67.90;;;;;;5072390;28;20499;-73
2021/06/17 05:20:46;;;;;;;8.70;5.50;;;22.10;68.80;;;;;;5063156;28;20777;-73
2021/06/17 05:23:14;;;;;;;7.13;5.23;;;22.10;67.90;;;;;;5066913;28;20453;-73
2021/06/17 05:25:42;;;;;;;13.03;6.37;;;22.20;67.00;;;;;;5072423;28;20528;-73
2021/06/17 05:28:09;;;;;;;9.93;5.70;;;22.20;66.70;;;;;;5072431;28;20425;-72
2021/06/17 05:30:35;;;;;;;8.97;5.70;;;22.30;65.60;;;;;;5070382;28;20419;-73
2021/06/17 05:33:00;;;;;;;10.03;6.10;;;22.20;65.80;;;;;;5070572;28;20445;-73
2021/06/17 05:35:26;;;;;;;10.80;6.60;;;22.30;65.70;;;;;;5072442;28;20918;-73
2021/06/17 05:37:52;;;;;;;8.50;5.90;;;22.40;65.60;;;;;;5072459;28;20198;-72
2021/06/17 05:40:18;;;;;;;9.10;5.20;;;22.40;65.60;;;;;;5072081;28;20656;-74
2021/06/17 05:42:44;;;;;;;9.73;6.30;;;22.50;65.30;;;;;;5071222;28;20973;-75
2021/06/17 05:45:10;;;;;;;11.70;8.60;;;22.60;64.20;;;;;;5071460;28;20447;-75
2021/06/17 05:47:37;;;;;;;9.07;6.57;;;22.60;64.50;;;;;;5072362;28;20610;-74
2021/06/17 05:50:04;;;;;;;10.43;5.97;;;22.70;65.40;;;;;;5072816;28;20982;-74
2021/06/17 05:52:30;;;;;;;9.10;6.20;;;22.80;65.10;;;;;;5067622;28;20427;-76
2021/06/17 05:54:56;;;;;;;9.93;6.27;;;22.90;64.80;;;;;;5071771;28;20445;-75
2021/06/17 05:57:22;;;;;;;8.47;5.80;;;23.00;64.70;;;;;;5066134;28;20181;-76
2021/06/17 05:59:47;;;;;;;9.83;5.77;;;23.00;64.80;;;;;;5071221;28;20220;-76
2021/06/17 06:02:14;;;;;;;8.30;7.00;;;23.10;64.50;;;;;;5071841;28;20204;-76
2021/06/17 06:04:39;;;;;;;8.00;5.50;;;23.10;64.40;;;;;;5071904;28;20205;-76
2021/06/17 06:07:05;;;;;;;10.07;6.00;;;23.20;63.70;;;;;;5071792;28;20454;-75
2021/06/17 06:09:31;;;;;;;5.73;4.90;;;23.30;63.50;;;;;;5071689;28;20181;-75
2021/06/17 06:11:57;;;;;;;8.17;5.60;;;23.30;63.10;;;;;;5063174;28;20208;-76
2021/06/17 06:14:22;;;;;;;10.93;6.27;;;23.30;63.50;;;;;;5071698;28;20767;-76
2021/06/17 06:16:50;;;;;;;9.80;5.97;;;23.30;62.60;;;;;;5079071;28;20190;-76
2021/06/17 06:19:16;;;;;;;12.03;6.70;;;23.40;61.90;;;;;;5084588;28;20216;-76
2021/06/17 06:21:44;;;;;;;8.30;5.43;;;23.50;61.50;;;;;;5078639;28;20432;-75
2021/06/17 06:24:10;;;;;;;9.27;6.47;;;23.60;61.30;;;;;;5071304;28;20537;-77
2021/06/17 06:26:36;;;;;;;7.83;4.97;;;23.70;61.20;;;;;;5071540;28;20766;-76
2021/06/17 06:29:02;;;;;;;8.63;5.93;;;23.80;61.00;;;;;;5070314;28;20509;-75
2021/06/17 06:31:28;;;;;;;8.13;6.20;;;24.00;61.20;;;;;;5071139;28;20429;-75
2021/06/17 06:33:53;;;;;;;12.90;5.73;;;24.10;60.40;;;;;;5070094;28;20453;-75
2021/06/17 06:36:19;;;;;;;7.90;5.63;;;24.20;60.00;;;;;;5071524;28;20433;-75
2021/06/17 06:38:45;;;;;;;6.40;5.13;;;24.30;59.90;;;;;;5070515;28;20201;-75
2021/06/17 06:41:11;;;;;;;8.93;6.03;;;24.40;59.30;;;;;;5077264;28;20204;-76
2021/06/17 06:43:36;;;;;;;9.77;5.90;;;24.50;58.70;;;;;;5094967;28;20192;-76
2021/06/17 06:46:02;;;;;;;8.17;5.30;;;24.50;58.70;;;;;;5094180;28;20283;-77
2021/06/17 06:48:28;;;;;;;15.37;6.27;;;24.60;58.80;;;;;;5086770;28;20670;-75
2021/06/17 06:50:53;;;;;;;14.53;6.10;;;24.70;58.20;;;;;;5080468;28;20181;-76
2021/06/17 06:53:19;;;;;;;9.60;6.10;;;24.70;57.00;;;;;;5079131;28;20188;-75
2021/06/17 06:55:45;;;;;;;9.20;5.30;;;24.70;56.00;;;;;;5077462;28;20212;-75
2021/06/17 06:58:14;;;;;;;13.10;6.10;;;24.70;55.60;;;;;;5078720;28;20214;-76
2021/06/17 07:00:43;;;;;;;6.63;5.17;;;24.90;56.20;;;;;;5084336;28;20181;-74
2021/06/17 07:03:12;;;;;;;11.20;5.33;;;25.10;55.20;;;;;;5086331;28;20433;-75
2021/06/17 07:05:38;;;;;;;8.90;5.27;;;25.10;55.30;;;;;;5081807;28;20454;-75
2021/06/17 07:08:09;;;;;;;8.50;5.40;;;25.30;54.10;;;;;;5081744;28;20464;-75
2021/06/17 07:10:41;;;;;;;8.83;5.00;;;25.50;53.60;;;;;;5085342;28;20187;-76
2021/06/17 07:13:06;;;;;;;10.10;5.47;;;25.70;54.00;;;;;;5077591;28;20485;-78
2021/06/17 07:15:32;;;;;;;11.50;5.30;;;25.80;54.00;;;;;;5074698;28;20542;-75
2021/06/17 07:17:58;;;;;;;8.60;4.67;;;25.90;52.90;;;;;;5073643;28;20246;-75
2021/06/17 07:20:23;;;;;;;9.90;5.10;;;26.00;52.80;;;;;;5073799;28;20191;-75
2021/06/17 07:22:54;;;;;;;9.07;5.27;;;26.10;52.50;;;;;;5072874;28;20204;-75
2021/06/17 07:25:20;;;;;;;10.57;5.10;;;26.20;52.80;;;;;;5085292;28;20231;-76
2021/06/17 07:27:46;;;;;;;7.83;5.30;;;26.30;52.20;;;;;;5084410;28;20431;-76
2021/06/17 07:30:12;;;;;;;13.10;5.00;;;26.40;52.20;;;;;;5070501;28;20217;-75
2021/06/17 07:32:38;;;;;;;13.40;4.83;;;26.50;51.70;;;;;;5062958;28;20247;-76
2021/06/17 07:35:04;;;;;;;8.83;5.40;;;26.60;51.00;;;;;;5068675;28;20911;-75
2021/06/17 07:37:30;;;;;;;9.33;4.90;;;26.60;51.60;;;;;;5070743;28;20252;-77
2021/06/17 07:39:57;;;;;;;8.43;4.73;;;26.70;51.30;;;;;;5066690;28;20553;-76
2021/06/17 07:42:23;;;;;;;8.47;5.13;;;26.80;51.00;;;;;;5063930;28;20194;-76
2021/06/17 07:44:50;;;;;;;6.80;5.27;;;26.90;51.00;;;;;;5068495;28;20438;-76
2021/06/17 07:47:16;;;;;;;11.50;5.70;;;27.00;50.90;;;;;;5068685;28;20178;-77
2021/06/17 07:49:41;;;;;;;10.70;5.17;;;27.00;51.70;;;;;;5070679;28;20440;-76
2021/06/17 07:52:07;;;;;;;9.50;5.60;;;27.10;50.90;;;;;;5084964;28;20820;-76
2021/06/17 07:54:33;;;;;;;10.23;5.20;;;27.10;51.20;;;;;;5083374;28;20573;-76
2021/06/17 07:57:00;;;;;;;12.20;5.50;;;27.20;51.00;;;;;;5076304;28;20626;-77
2021/06/17 07:59:26;;;;;;;9.23;5.33;;;27.20;50.60;;;;;;5076313;28;20211;-77
2021/06/17 08:01:52;;;;;;;11.50;5.90;;;27.10;51.00;;;;;;5083822;28;20432;-75
2021/06/17 08:04:19;;;;;;;15.63;5.90;;;27.20;51.00;;;;;;5084103;28;20438;-76
2021/06/17 08:06:46;;;;;;;11.50;5.50;;;27.40;51.20;;;;;;5073566;28;20441;-75
2021/06/17 08:09:18;;;;;;;11.23;5.53;;;27.50;50.30;;;;;;5073204;28;20582;-75
2021/06/17 08:11:48;;;;;;;11.23;5.20;;;27.60;50.50;;;;;;5073297;28;20449;-75
2021/06/17 08:14:21;;;;;;;11.40;4.80;;;27.80;50.70;;;;;;5073925;28;20495;-77
2021/06/17 08:16:47;;;;;;;10.33;5.57;;;27.80;50.10;;;;;;5074070;28;20433;-75
2021/06/17 08:19:13;;;;;;;9.93;5.93;;;27.80;50.30;;;;;;5072238;28;20560;-75
2021/06/17 08:21:39;;;;;;;10.40;7.13;;;27.90;51.30;;;;;;5073635;28;20920;-76
2021/06/17 08:24:05;;;;;;;8.47;6.10;;;28.10;51.70;;;;;;5071780;28;20494;-76
2021/06/17 08:26:32;;;;;;;19.90;7.37;;;28.20;51.40;;;;;;5073914;28;20222;-76
2021/06/17 08:28:59;;;;;;;9.20;6.27;;;28.20;52.10;;;;;;5072135;28;20433;-76
2021/06/17 08:31:25;;;;;;;11.10;6.50;;;28.20;52.40;;;;;;5073419;28;20919;-76
2021/06/17 08:33:50;;;;;;;10.83;6.30;;;28.30;52.60;;;;;;5073466;28;20460;-75
2021/06/17 08:36:16;;;;;;;10.47;6.40;;;28.30;52.20;;;;;;5071980;28;20187;-76
2021/06/17 08:38:43;;;;;;;13.63;7.60;;;28.30;52.50;;;;;;5072523;28;20376;-75
2021/06/17 08:41:09;;;;;;;11.93;6.80;;;28.40;52.90;;;;;;5072742;28;20419;-76
2021/06/17 08:43:35;;;;;;;11.30;5.40;;;28.40;52.60;;;;;;5073648;28;20785;-75
2021/06/17 08:46:02;;;;;;;8.30;5.53;;;28.50;49.70;;;;;;5077875;28;20442;-75
2021/06/17 08:48:28;;;;;;;8.70;4.80;;;28.60;47.00;;;;;;5074293;28;20465;-76
2021/06/17 08:50:54;;;;;;;10.90;5.53;;;28.80;47.50;;;;;;5071529;28;20454;-76
2021/06/17 08:53:21;;;;;;;12.20;6.03;;;28.90;48.10;;;;;;5073530;28;20230;-75
2021/06/17 08:55:47;;;;;;;10.10;5.60;;;29.10;48.60;;;;;;5078586;28;20537;-76
2021/06/17 08:58:12;;;;;;;9.27;5.73;;;29.20;47.80;;;;;;5072466;28;20504;-75
2021/06/17 09:00:40;;;;;;;7.07;5.30;;;29.30;48.50;;;;;;5072296;28;20229;-77
2021/06/17 09:03:12;;;;;;;6.60;4.90;;;29.30;47.70;;;;;;5072864;28;20525;-76
2021/06/17 09:05:41;;;;;;;7.90;4.93;;;29.50;44.10;;;;;;5071700;28;20449;-75
2021/06/17 09:08:08;;;;;;;10.37;4.97;;;29.50;44.60;;;;;;5072888;28;20521;-75
2021/06/17 09:10:39;;;;;;;10.70;5.00;;;29.50;44.60;;;;;;5073741;28;20458;-77
2021/06/17 09:13:06;;;;;;;6.83;4.80;;;29.50;45.50;;;;;;5073557;28;20427;-76
2021/06/17 09:15:37;;;;;;;6.97;5.00;;;29.70;46.50;;;;;;5073157;28;20536;-76
2021/06/17 09:18:10;;;;;;;9.40;5.60;;;29.80;46.90;;;;;;5064242;28;20866;-76
2021/06/17 09:20:37;;;;;;;11.07;5.57;;;29.90;46.90;;;;;;5073478;28;20830;-77
2021/06/17 09:23:23;;;;;;;7.90;5.73;;;29.90;45.80;;;;;;5075300;28;20411;-77
2021/06/17 09:25:58;;;;;;;10.60;6.43;;;30.00;45.80;;;;;;5072856;28;20438;-75
2021/06/17 09:28:26;;;;;;;16.43;7.20;;;29.80;48.70;;;;;;5072163;28;20433;-76
2021/06/17 09:30:52;;;;;;;13.60;6.83;;;29.70;49.00;;;;;;5073244;28;20902;-76
2021/06/17 09:33:18;;;;;;;10.43;6.73;;;29.60;49.00;;;;;;5072926;28;20538;-76
2021/06/17 09:35:55;;;;;;;10.67;7.20;;;29.70;47.70;;;;;;5072441;28;20220;-76
2021/06/17 09:38:21;;;;;;;9.97;6.40;;;29.70;47.50;;;;;;5070852;28;20492;-76
2021/06/17 09:40:50;;;;;;;8.30;6.00;;;29.90;47.40;;;;;;5072245;28;20433;-75
2021/06/17 09:43:21;;;;;;;12.20;6.63;;;30.00;45.50;;;;;;5073212;28;20944;-76
2021/06/17 09:45:53;;;;;;;7.90;6.40;;;30.20;43.90;;;;;;5072124;28;20600;-76
2021/06/17 09:48:37;;;;;;;10.23;7.03;;;30.20;44.10;;;;;;5071614;28;20423;-76
2021/06/17 09:51:34;;;;;;;13.07;5.90;;;30.30;43.90;;;;;;5071746;28;20422;-76
2021/06/17 09:54:13;;;;;;;9.60;6.43;;;30.30;44.30;;;;;;5073269;28;20441;-76
2021/06/17 09:56:40;;;;;;;9.83;7.10;;;30.40;44.60;;;;;;5068624;28;20488;-76
2021/06/17 09:59:09;;;;;;;11.63;7.20;;;30.50;44.60;;;;;;5071778;28;20462;-75
2021/06/17 10:01:45;;;;;;;10.50;6.07;;;30.20;45.30;;;;;;5071498;28;20799;-75
2021/06/17 10:04:13;;;;;;;11.30;6.80;;;30.30;45.80;;;;;;5071507;28;20445;-76
2021/06/17 10:06:41;;;;;;;7.67;6.20;;;30.40;45.30;;;;;;5072458;28;20475;-76
2021/06/17 10:09:09;;;;;;;7.47;6.40;;;30.30;44.70;;;;;;5069332;28;20433;-75
2021/06/17 10:11:37;;;;;;;5.70;5.40;;;30.30;43.40;;;;;;5074411;28;20836;-76
2021/06/17 10:14:04;;;;;;;10.27;6.50;;;30.40;42.80;;;;;;5078889;28;20442;-75
2021/06/17 10:16:30;;;;;;;11.30;7.87;;;30.50;43.00;;;;;;5074471;28;20430;-76
2021/06/17 10:18:56;;;;;;;11.87;6.90;;;30.20;43.20;;;;;;5068758;28;20467;-78
2021/06/17 10:21:22;;;;;;;9.07;6.27;;;30.00;43.40;;;;;;5068242;28;20418;-76
2021/06/17 10:23:51;;;;;;;10.03;6.93;;;30.30;42.80;;;;;;5074932;28;20544;-76
2021/06/17 10:26:22;;;;;;;9.13;6.63;;;30.60;41.90;;;;;;5080022;28;20179;-76
2021/06/17 10:28:51;;;;;;;10.27;7.03;;;30.90;41.60;;;;;;5079672;28;20426;-76
2021/06/17 10:31:49;;;;;;;10.37;6.80;;;31.30;40.70;;;;;;5071072;28;20786;-77
2021/06/17 10:34:28;;;;;;;10.80;6.93;;;30.90;41.50;;;;;;5077088;28;20488;-77
2021/06/17 10:37:17;;;;;;;10.87;7.10;;;30.90;42.30;;;;;;5078597;28;20414;-75
2021/06/17 10:39:44;;;;;;;10.47;7.00;;;31.20;41.80;;;;;;5070803;28;20478;-76
2021/06/17 10:42:13;;;;;;;7.57;6.30;;;31.70;41.80;;;;;;5069969;28;20932;-77
2021/06/17 10:45:21;;;;;;;13.20;6.53;;;31.90;41.00;;;;;;5071080;28;20456;-76
2021/06/17 10:47:48;;;;;;;10.10;7.23;;;32.10;40.70;;;;;;5057663;28;21236;-77
2021/06/17 10:50:19;;;;;;;11.00;7.07;;;32.10;40.30;;;;;;5072754;28;20486;-77
2021/06/17 10:52:46;;;;;;;6.87;6.40;;;31.60;41.10;;;;;;5072083;28;20430;-75
2021/06/17 10:55:13;;;;;;;10.27;6.93;;;31.90;40.80;;;;;;5069157;28;20439;-75
2021/06/17 10:57:46;;;;;;;9.57;8.00;;;32.20;40.40;;;;;;5070924;28;20424;-76
2021/06/17 11:00:30;;;;;;;10.70;7.07;;;32.10;40.00;;;;;;5068718;28;20979;-76
2021/06/17 11:03:05;;;;;;;10.37;7.10;;;32.20;39.60;;;;;;5077967;28;20418;-76
2021/06/17 11:05:34;;;;;;;14.70;6.90;;;32.20;40.30;;;;;;5072293;28;20442;-76
2021/06/17 11:08:28;;;;;;;10.70;7.37;;;32.30;40.20;;;;;;5071294;28;20430;-75
2021/06/17 11:10:59;;;;;;;9.57;7.30;;;32.30;40.30;;;;;;5072861;28;20434;-77
2021/06/17 11:13:35;;;;;;;11.00;7.60;;;32.20;40.40;;;;;;5074462;28;20513;-76
2021/06/17 11:16:14;;;;;;;15.07;9.00;;;31.90;41.20;;;;;;5066398;28;20465;-75
2021/06/17 11:21:23;;;;;;;8.47;6.90;;;31.70;40.60;;;;;;5068005;28;20422;-76
2021/06/17 11:23:50;;;;;;;11.10;7.30;;;31.80;40.70;;;;;;5067488;28;20454;-76
2021/06/17 11:26:39;;;;;;;9.00;7.40;;;31.90;40.20;;;;;;5074569;28;20501;-74
2021/06/17 11:29:07;;;;;;;9.37;7.03;;;31.90;40.40;;;;;;5066586;28;20452;-75
2021/06/17 11:31:43;;;;;;;12.20;7.00;;;32.20;39.90;;;;;;5065396;28;20422;-76
2021/06/17 11:34:11;;;;;;;9.90;7.23;;;32.50;39.10;;;;;;5062380;28;20842;-75
2021/06/17 11:36:52;;;;;;;10.40;7.77;;;32.70;38.70;;;;;;5069654;28;20445;-76
2021/06/17 11:39:41;;;;;;;9.50;7.43;;;32.40;38.70;;;;;;5071497;28;20461;-77
2021/06/17 11:42:21;;;;;;;10.00;8.20;;;32.50;38.60;;;;;;5071556;28;20433;-76
2021/06/17 11:45:01;;;;;;;7.70;7.17;;;32.40;38.70;;;;;;5073324;28;20442;-77
2021/06/17 11:47:27;;;;;;;12.90;8.70;;;32.30;38.60;;;;;;5070290;28;20551;-76
2021/06/17 11:49:53;;;;;;;9.03;7.10;;;32.50;38.30;;;;;;5080865;28;20423;-76
2021/06/17 11:52:20;;;;;;;9.20;7.90;;;33.00;37.20;;;;;;5081041;28;20423;-75
2021/06/17 11:54:48;;;;;;;8.33;7.20;;;33.10;37.40;;;;;;5077241;28;20232;-77
2021/06/17 11:57:15;;;;;;;10.50;7.87;;;33.20;37.50;;;;;;5080532;28;20663;-76
2021/06/17 11:59:53;;;;;;;10.23;7.00;;;33.50;36.30;;;;;;5079667;28;20473;-75
2021/06/17 12:02:23;;;;;;;11.47;8.17;;;33.50;37.40;;;;;;5073522;28;20406;-75
2021/06/17 12:05:04;;;;;;;8.63;8.00;;;32.60;39.50;;;;;;5077635;28;20521;-76
2021/06/17 12:07:44;;;;;;;11.87;7.60;;;32.80;38.80;;;;;;5082127;28;20444;-76
2021/06/17 12:10:23;;;;;;;12.33;7.43;;;32.80;39.10;;;;;;5081199;28;20418;-77
2021/06/17 12:12:50;;;;;;;10.60;7.00;;;32.80;39.00;;;;;;5075107;28;20429;-77
2021/06/17 12:15:40;;;;;;;9.73;7.40;;;33.20;36.80;;;;;;5074972;28;20457;-75
2021/06/17 12:18:14;;;;;;;8.37;6.87;;;33.50;37.00;;;;;;5072367;28;20430;-75
2021/06/17 12:20:45;;;;;;;14.30;7.43;;;33.50;37.20;;;;;;5075297;28;20479;-75
2021/06/17 12:23:15;;;;;;;9.27;7.33;;;34.10;36.30;;;;;;5088981;28;20411;-77
2021/06/17 12:25:47;;;;;;;12.60;7.20;;;33.80;36.40;;;;;;5089422;28;20426;-77
2021/06/17 12:28:16;;;;;;;10.90;7.70;;;33.40;37.20;;;;;;5090403;28;20485;-76
2021/06/17 12:30:41;;;;;;;12.50;7.77;;;32.90;38.30;;;;;;5087081;28;20423;-76
2021/06/17 12:33:13;;;;;;;9.97;7.33;;;33.40;37.80;;;;;;5085657;28;20446;-75
2021/06/17 12:35:49;;;;;;;10.33;7.20;;;34.00;37.00;;;;;;5080274;28;20283;-76
2021/06/17 12:38:31;;;;;;;10.00;7.27;;;34.70;35.30;;;;;;5078772;28;20469;-76
2021/06/17 12:41:17;;;;;;;10.70;8.07;;;35.20;34.40;;;;;;5075891;28;20478;-76
2021/06/17 12:43:56;;;;;;;11.63;7.00;;;35.70;33.20;;;;;;5072589;28;20418;-76
2021/06/17 12:46:31;;;;;;;9.00;7.30;;;35.60;32.70;;;;;;5074493;28;20406;-77
2021/06/17 12:54:22;;;;;;;9.20;7.17;;;35.40;32.90;;;;;;5070585;28;20441;-77
2021/06/17 12:57:01;;;;;;;8.87;6.50;;;34.60;34.30;;;;;;5074811;28;20426;-77
2021/06/17 12:59:34;;;;;;;10.20;7.00;;;35.10;34.10;;;;;;5072905;28;20477;-75
2021/06/17 13:01:59;;;;;;;10.67;7.27;;;35.50;32.90;;;;;;5072745;28;20517;-76
2021/06/17 13:04:25;;;;;;;7.50;7.00;;;35.70;33.30;;;;;;5074315;28;20521;-76
2021/06/17 13:06:51;;;;;;;11.93;8.43;;;36.50;31.60;;;;;;5073768;28;20199;-77